Time;durP1;ratioP1;P1;durP2;ratioP2;P2;SDS_P1;SDS_P2;PMS_P1;PMS_P2;Temp;Humidity;BMP_temperature;BMP_pressure;BME280_temperature;BME280_humidity;BME280_pressure;Samples;Min_cycle;Max_cycle;Signal;HPM_P1;HPM_P2
2023/12/19 00:03:39;;;;;;;70.22;32.47;;;;;;;6.91;100.00;102084.44;10432604;28;20041;-79
2023/12/19 00:08:39;;;;;;;69.60;31.88;;;;;;;6.91;100.00;102076.22;10459374;28;20036;-79
2023/12/19 00:13:40;;;;;;;67.68;34.50;;;;;;;6.85;100.00;102055.97;10460442;28;20042;-80
2023/12/19 00:18:40;;;;;;;68.88;36.05;;;;;;;6.91;100.00;102046.13;10431366;28;20377;-81
2023/12/19 00:23:41;;;;;;;75.32;35.05;;;;;;;6.98;100.00;102040.69;10472074;28;20062;-83
2023/12/19 00:28:43;;;;;;;73.85;35.28;;;;;;;6.97;100.00;102023.41;10453800;28;20033;-82
2023/12/19 00:33:44;;;;;;;86.53;38.78;;;;;;;7.02;100.00;102033.75;10440034;28;20037;-82
2023/12/19 00:38:44;;;;;;;70.10;37.75;;;;;;;6.91;100.00;102016.00;10435031;28;20449;-81
2023/12/19 00:43:45;;;;;;;77.07;37.70;;;;;;;7.08;100.00;102052.94;10442026;28;20492;-74
2023/12/19 00:48:45;;;;;;;68.82;37.75;;;;;;;6.97;100.00;102015.19;10445220;28;20053;-78
2023/12/19 00:53:46;;;;;;;73.93;39.25;;;;;;;7.08;100.00;102033.78;10444256;28;20040;-79
2023/12/19 00:58:46;;;;;;;74.85;39.50;;;;;;;7.12;100.00;102036.13;10456329;28;20045;-76
2023/12/19 01:03:47;;;;;;;67.05;37.97;;;;;;;7.11;100.00;102015.25;10421551;28;20121;-80
2023/12/19 01:08:48;;;;;;;68.78;36.53;;;;;;;7.17;100.00;102011.69;10409258;28;20040;-80
2023/12/19 01:13:49;;;;;;;61.47;33.08;;;;;;;7.10;100.00;101994.41;10423894;28;20049;-80
2023/12/19 01:18:49;;;;;;;57.25;31.67;;;;;;;7.13;100.00;101997.59;10423205;28;20049;-74
2023/12/19 01:23:49;;;;;;;60.25;34.80;;;;;;;7.17;100.00;102009.81;10433679;28;20037;-84
2023/12/19 01:28:50;;;;;;;59.03;31.85;;;;;;;7.22;100.00;101992.78;10424727;28;20044;-83
2023/12/19 01:33:51;;;;;;;62.67;33.55;;;;;;;7.14;100.00;101980.09;10434225;28;20067;-83
2023/12/19 01:38:52;;;;;;;53.65;31.98;;;;;;;7.22;100.00;101984.56;10439351;28;20033;-81
2023/12/19 01:43:57;;;;;;;57.20;31.85;;;;;;;6.59;100.00;101876.03;10441165;28;20069;-82
2023/12/19 01:49:00;;;;;;;51.35;31.77;;;;;;;7.23;100.00;101975.28;10426134;28;20064;-84
2023/12/19 01:54:01;;;;;;;48.53;31.50;;;;;;;7.17;100.00;101960.53;10426228;28;20037;-84
2023/12/19 01:59:02;;;;;;;51.45;31.35;;;;;;;7.13;100.00;101958.38;10440803;28;20037;-81
2023/12/19 02:04:02;;;;;;;52.45;28.88;;;;;;;7.21;100.00;101960.94;10398340;28;20037;-83
2023/12/19 02:09:03;;;;;;;56.03;32.47;;;;;;;7.20;100.00;101975.69;10440759;28;20033;-85
2023/12/19 02:14:03;;;;;;;47.97;31.00;;;;;;;7.19;100.00;101942.00;10440401;28;20041;-84
2023/12/19 02:19:04;;;;;;;49.63;31.48;;;;;;;7.14;100.00;101938.19;10443572;28;20037;-82
2023/12/19 02:24:05;;;;;;;42.80;27.23;;;;;;;7.28;100.00;101956.34;10432225;28;20057;-81
2023/12/19 02:29:05;;;;;;;39.60;27.80;;;;;;;7.15;100.00;101934.38;10406347;28;20044;-83
2023/12/19 02:34:06;;;;;;;41.88;28.98;;;;;;;7.22;100.00;101929.78;10457501;28;20053;-77
2023/12/19 02:39:06;;;;;;;36.17;26.70;;;;;;;7.34;100.00;101919.91;10440261;28;20508;-80
2023/12/19 02:44:07;;;;;;;38.28;28.45;;;;;;;7.24;100.00;101906.59;10430853;28;20540;-83
2023/12/19 02:49:07;;;;;;;36.85;27.05;;;;;;;7.21;100.00;101887.00;10410208;28;20037;-79
2023/12/19 02:54:08;;;;;;;36.58;26.23;;;;;;;7.26;100.00;101892.72;10430428;28;20049;-80
2023/12/19 02:59:08;;;;;;;41.92;28.15;;;;;;;7.22;100.00;101896.91;10414637;28;20098;-79
2023/12/19 03:04:08;;;;;;;43.42;28.77;;;;;;;7.14;100.00;101902.56;10395188;28;20048;-77
2023/12/19 03:09:09;;;;;;;36.10;27.25;;;;;;;7.04;100.00;101895.59;10413515;28;20034;-79
2023/12/19 03:14:09;;;;;;;36.78;26.90;;;;;;;6.99;100.00;101864.41;10411986;28;20049;-78
2023/12/19 03:19:10;;;;;;;31.17;25.23;;;;;;;6.98;100.00;101858.06;10414349;28;20048;-74
2023/12/19 03:24:10;;;;;;;30.75;23.90;;;;;;;6.91;100.00;101843.53;10415063;28;20126;-80
2023/12/19 03:29:11;;;;;;;30.70;23.98;;;;;;;6.89;100.00;101859.31;10413399;28;20048;-77
2023/12/19 03:34:11;;;;;;;30.38;24.10;;;;;;;6.77;100.00;101850.03;10408470;28;20041;-80
2023/12/19 03:39:12;;;;;;;29.33;23.52;;;;;;;6.77;100.00;101855.50;10413764;28;20536;-80
2023/12/19 03:44:12;;;;;;;27.65;24.10;;;;;;;6.79;100.00;101834.25;10413752;28;20033;-78
2023/12/19 03:49:13;;;;;;;33.10;23.77;;;;;;;6.74;100.00;101817.56;10416001;28;20049;-79
2023/12/19 03:54:14;;;;;;;25.77;22.05;;;;;;;6.73;100.00;101827.69;10413304;28;20038;-78
2023/12/19 03:59:14;;;;;;;32.78;24.35;;;;;;;6.78;100.00;101821.59;10415710;28;20064;-80
2023/12/19 04:04:17;;;;;;;31.70;23.85;;;;;;;6.69;100.00;101814.63;10411937;28;20041;-82
2023/12/19 04:09:17;;;;;;;29.92;23.88;;;;;;;6.62;100.00;101796.28;10406633;28;20034;-80
2023/12/19 04:14:18;;;;;;;29.55;23.35;;;;;;;6.67;100.00;101791.03;10413670;28;20046;-80
2023/12/19 04:19:21;;;;;;;28.13;23.38;;;;;;;6.27;100.00;101729.88;10414041;28;20061;-72
2023/12/19 04:24:21;;;;;;;24.50;21.52;;;;;;;6.65;100.00;101770.41;10412911;28;20092;-84
2023/12/19 04:29:22;;;;;;;28.48;22.35;;;;;;;6.60;100.00;101768.28;10411379;28;20060;-79
2023/12/19 04:34:23;;;;;;;29.05;22.98;;;;;;;6.68;100.00;101786.44;10406657;28;20042;-80
2023/12/19 04:39:24;;;;;;;27.27;23.30;;;;;;;6.70;100.00;101777.97;10414434;28;20037;-84
2023/12/19 04:44:24;;;;;;;31.48;23.38;;;;;;;6.71;100.00;101774.22;10413443;28;20033;-82
2023/12/19 04:49:25;;;;;;;28.88;22.17;;;;;;;6.64;100.00;101775.03;10396876;28;20060;-83
2023/12/19 04:54:25;;;;;;;29.33;22.05;;;;;;;6.62;100.00;101766.19;10402228;28;20041;-82
2023/12/19 04:59:26;;;;;;;30.55;21.70;;;;;;;6.65;100.00;101764.94;10394829;28;20133;-83
2023/12/19 05:04:26;;;;;;;26.20;22.75;;;;;;;6.65;100.00;101746.59;10395861;28;20037;-83
2023/12/19 05:09:26;;;;;;;26.65;20.80;;;;;;;6.63;100.00;101745.97;10413593;28;20041;-85
2023/12/19 05:14:27;;;;;;;26.63;19.83;;;;;;;6.59;100.00;101744.69;10397174;28;20034;-83
2023/12/19 05:19:27;;;;;;;23.27;19.17;;;;;;;6.62;100.00;101741.56;10387412;28;20030;-86
2023/12/19 05:24:32;;;;;;;24.10;19.10;;;;;;;6.64;100.00;101722.22;10419229;28;20041;-86
2023/12/19 05:29:32;;;;;;;23.35;20.02;;;;;;;6.61;100.00;101726.19;10416954;28;20064;-83
2023/12/19 05:34:33;;;;;;;22.77;18.15;;;;;;;6.62;100.00;101727.88;10418850;28;20041;-85
2023/12/19 05:39:33;;;;;;;22.08;17.13;;;;;;;6.61;100.00;101728.91;10419346;28;20044;-86
2023/12/19 05:44:34;;;;;;;21.23;18.83;;;;;;;6.25;100.00;101678.13;10416160;28;20037;-85
2023/12/19 05:49:34;;;;;;;19.80;17.70;;;;;;;6.61;100.00;101737.13;10417248;28;20037;-84
2023/12/19 05:54:35;;;;;;;21.30;18.88;;;;;;;6.53;100.00;101722.81;10417883;28;20072;-85
2023/12/19 05:59:35;;;;;;;22.00;18.98;;;;;;;6.63;100.00;101724.09;10402162;28;20057;-79
2023/12/19 06:04:36;;;;;;;19.17;17.17;;;;;;;6.51;100.00;101692.94;10401655;28;20052;-85
2023/12/19 06:09:36;;;;;;;20.83;18.25;;;;;;;6.56;100.00;101701.34;10415523;28;20386;-87
2023/12/19 06:14:37;;;;;;;21.83;18.27;;;;;;;6.68;100.00;101720.75;10418231;28;20547;-89
2023/12/19 06:19:38;;;;;;;22.10;17.75;;;;;;;6.67;100.00;101681.56;10418169;28;20034;-87
2023/12/19 06:24:38;;;;;;;19.27;17.33;;;;;;;6.66;100.00;101673.59;10423560;28;20037;-87
2023/12/19 06:29:39;;;;;;;20.73;17.25;;;;;;;6.58;100.00;101654.66;10392835;28;20049;-93
2023/12/19 06:34:39;;;;;;;18.73;16.75;;;;;;;6.66;100.00;101658.00;10411555;28;20060;-91
2023/12/19 06:39:40;;;;;;;18.35;16.50;;;;;;;6.67;100.00;101648.75;10378113;28;20061;-89
2023/12/19 06:44:40;;;;;;;19.30;16.92;;;;;;;6.65;100.00;101645.38;10416183;28;20037;-92
2023/12/19 06:49:41;;;;;;;18.95;17.02;;;;;;;6.61;100.00;101626.84;10417078;28;20060;-92
2023/12/19 06:54:41;;;;;;;17.70;15.82;;;;;;;6.63;100.00;101620.09;10397038;28;20037;-92
2023/12/19 06:59:42;;;;;;;19.77;17.77;;;;;;;6.73;100.00;101632.53;10412869;28;20037;-91
2023/12/19 07:04:42;;;;;;;19.73;17.75;;;;;;;6.64;100.00;101624.53;10413041;28;20055;-92
2023/12/19 07:09:43;;;;;;;22.45;18.83;;;;;;;6.72;100.00;101628.09;10398875;28;20046;-91
2023/12/19 07:14:43;;;;;;;19.67;17.48;;;;;;;6.68;100.00;101619.50;10418410;28;20037;-91
2023/12/19 07:19:43;;;;;;;20.35;18.27;;;;;;;6.66;100.00;101613.41;10426845;28;20428;-88
2023/12/19 07:24:44;;;;;;;19.58;17.52;;;;;;;6.71;100.00;101626.44;10433581;28;20072;-89
2023/12/19 07:29:44;;;;;;;23.77;19.00;;;;;;;6.76;100.00;101610.22;10429169;28;20030;-89
2023/12/19 07:34:46;;;;;;;22.10;18.00;;;;;;;6.78;100.00;101605.38;10397479;28;20041;-82
2023/12/19 07:39:46;;;;;;;20.55;17.92;;;;;;;6.79;100.00;101601.59;10416111;28;20045;-89
2023/12/19 07:44:47;;;;;;;21.95;17.70;;;;;;;6.81;100.00;101610.44;10415943;28;20037;-86
2023/12/19 07:49:47;;;;;;;20.80;17.38;;;;;;;6.81;100.00;101604.97;10415837;28;20044;-89
2023/12/19 07:54:48;;;;;;;23.88;18.60;;;;;;;6.71;100.00;101568.97;10452698;28;20052;-91
2023/12/19 07:59:49;;;;;;;19.67;17.58;;;;;;;6.85;100.00;101584.34;10411997;28;20053;-89
2023/12/19 08:04:49;;;;;;;23.30;17.80;;;;;;;6.85;100.00;101590.63;10455197;28;20044;-88
2023/12/19 08:09:50;;;;;;;20.15;18.00;;;;;;;6.78;100.00;101580.75;10438895;28;20033;-87
2023/12/19 08:14:50;;;;;;;21.83;19.27;;;;;;;6.92;100.00;101589.78;10441779;28;20049;-84
2023/12/19 08:19:51;;;;;;;23.02;18.80;;;;;;;6.25;100.00;101480.41;10436517;28;20033;-87
2023/12/19 08:24:52;;;;;;;23.85;18.00;;;;;;;6.97;100.00;101592.75;10444653;28;20036;-90
2023/12/19 08:29:52;;;;;;;22.00;18.77;;;;;;;7.01;100.00;101594.84;10432865;28;20037;-85
2023/12/19 08:34:53;;;;;;;24.55;18.23;;;;;;;7.00;100.00;101592.31;10466019;28;20041;-88
2023/12/19 08:39:57;;;;;;;22.45;19.17;;;;;;;6.97;100.00;101579.91;10446878;28;20067;-89
2023/12/19 08:44:58;;;;;;;23.42;18.58;;;;;;;7.06;100.00;101578.59;10463271;28;20037;-90
2023/12/19 08:49:59;;;;;;;23.08;19.92;;;;;;;7.20;100.00;101589.53;10468524;28;20037;-88
2023/12/19 08:55:00;;;;;;;22.23;19.67;;;;;;;7.28;100.00;101583.84;10456702;28;20044;-89
2023/12/19 09:00:04;;;;;;;21.95;19.80;;;;;;;7.27;100.00;101580.22;10447059;28;20036;-89
2023/12/19 09:05:04;;;;;;;21.55;19.45;;;;;;;7.27;100.00;101566.53;10452781;28;20041;-87
2023/12/19 09:10:05;;;;;;;21.05;18.73;;;;;;;7.34;100.00;101561.06;10432278;28;20083;-81
2023/12/19 09:15:07;;;;;;;20.42;18.52;;;;;;;7.32;100.00;101552.22;10439873;28;20526;-88
2023/12/19 09:20:07;;;;;;;19.33;17.52;;;;;;;7.40;100.00;101556.59;10425683;28;20045;-89
2023/12/19 09:25:14;;;;;;;22.23;19.67;;;;;;;7.42;100.00;101540.78;10457323;28;20056;-89
2023/12/19 09:30:17;;;;;;;22.00;19.98;;;;;;;7.45;100.00;101541.19;10473214;28;20033;-83
2023/12/19 09:35:17;;;;;;;21.20;18.95;;;;;;;7.50;100.00;101542.44;10438090;28;20477;-90
2023/12/19 09:40:19;;;;;;;22.38;20.13;;;;;;;7.52;100.00;101535.69;10475118;28;20040;-85
2023/12/19 09:45:20;;;;;;;21.60;19.40;;;;;;;7.27;100.00;101489.00;10429938;28;20124;-87
2023/12/19 09:50:20;;;;;;;22.80;20.60;;;;;;;7.63;100.00;101531.44;10441438;28;20106;-85
2023/12/19 09:55:21;;;;;;;24.02;21.65;;;;;;;7.69;100.00;101547.00;10424883;28;20102;-87
2023/12/19 10:00:22;;;;;;;23.88;20.58;;;;;;;7.13;100.00;101438.09;10421752;28;20091;-87
2023/12/19 10:05:22;;;;;;;24.00;21.60;;;;;;;7.67;100.00;101503.38;10424641;28;20037;-89
2023/12/19 10:10:28;;;;;;;23.33;21.02;;;;;;;7.80;100.00;101496.94;10407077;28;20135;-89
2023/12/19 10:15:28;;;;;;;23.25;21.13;;;;;;;7.84;100.00;101475.44;10441497;28;20048;-85
2023/12/19 10:20:29;;;;;;;23.35;21.17;;;;;;;7.77;100.00;101460.91;10423570;28;20037;-86
2023/12/19 10:25:33;;;;;;;21.40;19.50;;;;;;;7.89;100.00;101481.06;10407645;28;20041;-91
2023/12/19 10:30:37;;;;;;;21.80;20.00;;;;;;;7.96;100.00;101470.91;10441835;28;20037;-91
2023/12/19 10:35:38;;;;;;;22.35;20.55;;;;;;;7.94;100.00;101472.19;10427051;28;20504;-88
2023/12/19 10:40:38;;;;;;;21.50;19.60;;;;;;;8.01;100.00;101479.31;10438881;28;20051;-89
2023/12/19 10:45:39;;;;;;;21.58;19.65;;;;;;;7.97;100.00;101463.53;10422992;28;20037;-86
2023/12/19 10:50:40;;;;;;;23.58;21.35;;;;;;;8.08;100.00;101468.28;10406740;28;20043;-92
2023/12/19 10:55:44;;;;;;;22.85;20.85;;;;;;;8.01;100.00;101448.31;10445377;28;20043;-91
2023/12/19 11:00:45;;;;;;;23.75;21.67;;;;;;;8.11;100.00;101445.91;10421564;28;20045;-89
2023/12/19 11:05:46;;;;;;;23.90;21.70;;;;;;;8.13;100.00;101435.53;10404793;28;20041;-89
2023/12/19 11:11:09;;;;;;;22.48;20.48;;;;;;;8.16;100.00;101415.88;10421492;28;20040;-87
2023/12/19 11:16:15;;;;;;;23.25;21.15;;;;;;;8.17;100.00;101401.13;10439657;28;20423;-90
2023/12/19 11:21:27;;;;;;;22.45;20.55;;;;;;;8.24;100.00;101410.13;10424240;28;20045;-90
2023/12/19 11:26:44;;;;;;;25.90;21.23;;;;;;;8.23;100.00;101402.97;10421694;28;20033;-88
2023/12/19 11:31:45;;;;;;;22.90;20.83;;;;;;;8.31;100.00;101384.50;10397766;28;20538;-90
2023/12/19 11:36:46;;;;;;;23.60;21.50;;;;;;;8.32;100.00;101395.28;10455637;28;20059;-87
2023/12/19 11:41:46;;;;;;;22.80;20.67;;;;;;;8.32;100.00;101389.78;10412461;28;20033;-88
2023/12/19 11:46:47;;;;;;;22.13;20.13;;;;;;;8.33;100.00;101390.63;10437074;28;20056;-84
2023/12/19 11:51:53;;;;;;;23.63;21.55;;;;;;;8.31;100.00;101376.28;10453268;28;20037;-85
2023/12/19 11:57:01;;;;;;;24.23;21.92;;;;;;;8.33;100.00;101377.75;10444675;28;20040;-88
2023/12/19 12:02:02;;;;;;;24.92;22.67;;;;;;;8.37;100.00;101375.38;10468141;28;20055;-87
2023/12/19 12:07:03;;;;;;;23.00;21.10;;;;;;;8.43;100.00;101366.28;10452516;28;20159;-85
2023/12/19 12:12:03;;;;;;;23.70;21.73;;;;;;;8.40;100.00;101355.72;10443595;28;20101;-84
2023/12/19 12:17:05;;;;;;;23.33;21.33;;;;;;;8.38;100.00;101342.25;10467031;28;20041;-85
2023/12/19 12:22:05;;;;;;;24.30;22.20;;;;;;;8.30;100.00;101345.28;10451566;28;20045;-85
2023/12/19 12:27:09;;;;;;;25.58;23.10;;;;;;;8.37;100.00;101347.94;10439460;28;20045;-87
2023/12/19 12:32:10;;;;;;;25.42;22.77;;;;;;;8.37;100.00;101339.72;10450236;28;20528;-87
2023/12/19 12:37:11;;;;;;;26.38;23.67;;;;;;;8.35;100.00;101336.34;10458202;28;20518;-85
2023/12/19 12:42:15;;;;;;;26.45;24.15;;;;;;;8.35;100.00;101348.19;10439672;28;20044;-85
2023/12/19 12:47:24;;;;;;;28.85;25.55;;;;;;;8.38;100.00;101341.41;10441354;28;20067;-84
2023/12/19 12:52:25;;;;;;;27.10;24.60;;;;;;;8.33;100.00;101324.78;10446616;28;20045;-86
2023/12/19 12:57:25;;;;;;;26.23;23.63;;;;;;;8.33;100.00;101317.41;10445518;28;20053;-84
2023/12/19 13:02:26;;;;;;;26.27;23.70;;;;;;;8.39;100.00;101310.16;10462177;28;20048;-88
2023/12/19 13:07:27;;;;;;;26.63;24.00;;;;;;;8.35;100.00;101298.81;10460666;28;20029;-85
2023/12/19 13:12:28;;;;;;;25.27;23.00;;;;;;;8.34;100.00;101283.41;10461188;28;20045;-85
2023/12/19 13:17:28;;;;;;;26.42;24.05;;;;;;;8.44;100.00;101296.63;10441968;28;20102;-84
2023/12/19 13:22:29;;;;;;;26.55;24.30;;;;;;;8.38;100.00;101316.72;10445884;28;20040;-84
2023/12/19 13:27:30;;;;;;;27.33;24.73;;;;;;;8.35;100.00;101298.81;10475047;28;20044;-83
2023/12/19 13:32:30;;;;;;;23.27;21.08;;;;;;;8.37;100.00;101304.03;10480281;28;20052;-74
2023/12/19 13:37:30;;;;;;;24.50;22.60;;;;;;;7.80;100.00;101211.88;10483287;28;20040;-84
2023/12/19 13:42:31;;;;;;;26.00;23.80;;;;;;;8.34;100.00;101280.66;10438146;28;20037;-87
2023/12/19 13:47:31;;;;;;;25.10;22.77;;;;;;;8.40;100.00;101298.13;10472080;28;20033;-85
2023/12/19 13:52:32;;;;;;;26.83;24.48;;;;;;;8.32;100.00;101295.69;10472238;28;20033;-87
2023/12/19 13:57:33;;;;;;;23.55;21.50;;;;;;;7.91;100.00;101231.38;10472283;28;20093;-83
2023/12/19 14:02:38;;;;;;;23.23;21.33;;;;;;;8.32;100.00;101298.41;10458085;28;20067;-85
2023/12/19 14:07:38;;;;;;;24.45;22.15;;;;;;;8.28;100.00;101293.38;10432311;28;20045;-85
2023/12/19 14:12:39;;;;;;;24.42;22.17;;;;;;;8.19;100.00;101278.31;10463189;28;20136;-87
2023/12/19 14:17:42;;;;;;;24.95;22.75;;;;;;;8.29;100.00;101284.09;10425433;28;20129;-85
2023/12/19 14:22:43;;;;;;;24.77;22.77;;;;;;;8.18;100.00;101267.56;10431590;28;20032;-86
2023/12/19 14:27:44;;;;;;;22.80;21.20;;;;;;;8.23;100.00;101262.25;10480102;28;20033;-86
2023/12/19 14:32:44;;;;;;;24.38;22.27;;;;;;;8.17;100.00;101247.53;10456217;28;20056;-86
2023/12/19 14:37:45;;;;;;;25.75;23.55;;;;;;;8.12;100.00;101239.13;10440936;28;20044;-87
2023/12/19 14:42:45;;;;;;;23.35;21.45;;;;;;;8.09;100.00;101236.88;10452267;28;20032;-89
2023/12/19 14:47:46;;;;;;;21.67;19.88;;;;;;;8.00;100.00;101225.38;10481148;28;20041;-89
2023/12/19 14:52:46;;;;;;;21.55;19.67;;;;;;;8.04;100.00;101242.19;10451782;28;20480;-85
2023/12/19 14:57:47;;;;;;;21.20;19.60;;;;;;;7.97;100.00;101236.78;10469711;28;20102;-89
2023/12/19 15:02:47;;;;;;;22.20;20.60;;;;;;;7.97;100.00;101235.94;10457211;28;20037;-88
2023/12/19 15:07:48;;;;;;;20.23;18.83;;;;;;;7.96;100.00;101239.75;10439344;28;20075;-88
2023/12/19 15:12:49;;;;;;;21.00;19.67;;;;;;;7.81;100.00;101209.97;10452184;28;20041;-92
2023/12/19 15:17:49;;;;;;;22.13;20.73;;;;;;;7.78;100.00;101211.28;10443055;28;20520;-90
2023/12/19 15:22:50;;;;;;;21.65;20.15;;;;;;;7.84;100.00;101237.78;10438930;28;20044;-90
2023/12/19 15:27:50;;;;;;;22.20;20.60;;;;;;;7.89;100.00;101228.84;10439031;28;20037;-88
2023/12/19 15:32:50;;;;;;;23.88;21.90;;;;;;;7.92;100.00;101233.03;10438351;28;20399;-90
2023/12/19 15:37:52;;;;;;;23.48;21.40;;;;;;;7.87;100.00;101226.38;10397383;28;20408;-89
2023/12/19 15:42:52;;;;;;;25.05;22.52;;;;;;;7.92;100.00;101222.06;10446894;28;20037;-89
2023/12/19 15:47:53;;;;;;;26.55;24.40;;;;;;;7.98;100.00;101224.75;10468370;28;20048;-86
2023/12/19 15:52:53;;;;;;;25.60;23.55;;;;;;;8.01;100.00;101228.94;10450776;28;20040;-86
2023/12/19 15:57:54;;;;;;;26.63;24.40;;;;;;;8.01;100.00;101223.47;10467738;28;20112;-91
2023/12/19 16:02:59;;;;;;;27.17;24.73;;;;;;;8.02;100.00;101220.50;10453853;28;20053;-90
2023/12/19 16:08:00;;;;;;;26.35;24.15;;;;;;;8.05;100.00;101200.00;10468398;28;20051;-89
2023/12/19 16:13:00;;;;;;;26.75;24.52;;;;;;;7.98;100.00;101208.31;10439697;28;20032;-89
2023/12/19 16:18:01;;;;;;;25.20;22.98;;;;;;;7.96;100.00;101196.72;10449488;28;20037;-91
2023/12/19 16:23:02;;;;;;;26.90;24.60;;;;;;;7.92;100.00;101194.66;10469809;28;20100;-93
2023/12/19 16:28:02;;;;;;;26.88;24.42;;;;;;;7.95;100.00;101210.66;10437291;28;20041;-90
2023/12/19 16:33:03;;;;;;;27.67;25.30;;;;;;;7.82;100.00;101193.31;10464165;28;20037;-91
2023/12/19 16:38:04;;;;;;;29.63;26.88;;;;;;;7.87;100.00;101187.13;10407946;28;20069;-90
2023/12/19 16:43:04;;;;;;;28.30;25.63;;;;;;;7.81;100.00;101166.13;10412037;28;20044;-88
2023/12/19 16:48:05;;;;;;;27.15;24.85;;;;;;;7.92;100.00;101189.19;10454641;28;20045;-77
2023/12/19 16:53:06;;;;;;;27.90;25.40;;;;;;;7.82;100.00;101174.13;10437801;28;22315;-91
2023/12/19 16:58:06;;;;;;;27.23;24.70;;;;;;;7.88;100.00;101191.56;10422797;28;20040;-88
2023/12/19 17:03:07;;;;;;;28.50;26.13;;;;;;;7.84;100.00;101173.91;10425314;28;20535;-87
2023/12/19 17:08:07;;;;;;;28.25;25.95;;;;;;;7.87;100.00;101170.69;10431025;28;20045;-91
2023/12/19 17:13:08;;;;;;;28.23;25.75;;;;;;;7.89;100.00;101191.31;10432470;28;20048;-89
2023/12/19 17:18:08;;;;;;;28.83;26.00;;;;;;;7.82;100.00;101184.25;10439792;28;20067;-89
2023/12/19 17:23:09;;;;;;;29.00;26.45;;;;;;;7.87;100.00;101177.03;10460893;28;20045;-90
2023/12/19 17:28:09;;;;;;;30.25;27.55;;;;;;;7.85;100.00;101179.16;10443961;28;20063;-90
2023/12/19 17:33:10;;;;;;;31.02;28.08;;;;;;;7.83;100.00;101177.69;10453923;28;20613;-91
2023/12/19 17:38:10;;;;;;;29.48;26.52;;;;;;;7.76;100.00;101166.81;10445221;28;20497;-81
2023/12/19 17:43:11;;;;;;;30.27;27.02;;;;;;;7.83;100.00;101208.69;10441433;28;20432;-87
2023/12/19 17:48:11;;;;;;;30.08;26.77;;;;;;;7.81;100.00;101210.84;10425822;28;20029;-90
2023/12/19 17:53:12;;;;;;;28.33;25.63;;;;;;;7.63;100.00;101180.66;10460051;28;20052;-90
2023/12/19 17:58:12;;;;;;;26.48;24.10;;;;;;;7.56;100.00;101201.81;10442178;28;20060;-91
2023/12/19 18:03:13;;;;;;;25.33;23.08;;;;;;;7.54;100.00;101220.38;10441947;28;20045;-89
2023/12/19 18:08:13;;;;;;;24.83;22.63;;;;;;;7.29;100.00;101213.00;10448995;28;20048;-90
2023/12/19 18:13:14;;;;;;;23.88;22.05;;;;;;;7.26;100.00;101217.03;10426378;28;20044;-90
2023/12/19 18:18:16;;;;;;;23.80;21.75;;;;;;;7.22;100.00;101234.16;10448040;28;20037;-85
2023/12/19 18:23:17;;;;;;;23.38;21.48;;;;;;;7.14;100.00;101226.22;10459355;28;20037;-86
2023/12/19 18:28:17;;;;;;;22.17;20.30;;;;;;;7.11;100.00;101211.06;10407076;28;20492;-79
2023/12/19 18:33:18;;;;;;;22.35;20.25;;;;;;;7.00;100.00;101204.41;10440431;28;20071;-85
2023/12/19 18:38:21;;;;;;;20.90;18.85;;;;;;;6.94;100.00;101232.66;10439735;28;20508;-85
2023/12/19 18:43:22;;;;;;;20.88;19.20;;;;;;;6.92;100.00;101239.41;10457116;28;20534;-84
2023/12/19 18:48:23;;;;;;;21.15;19.50;;;;;;;6.83;100.00;101236.94;10423220;28;20044;-83
2023/12/19 18:53:23;;;;;;;18.05;16.85;;;;;;;6.67;100.00;101238.31;10417202;28;20467;-83
2023/12/19 18:58:24;;;;;;;24.27;19.48;;;;;;;6.56;100.00;101247.22;10456122;28;20052;-84
2023/12/19 19:03:24;;;;;;;19.10;17.50;;;;;;;6.41;100.00;101249.41;10438711;28;20043;-83
2023/12/19 19:08:27;;;;;;;20.55;18.85;;;;;;;6.27;100.00;101232.22;10399606;28;20104;-83
2023/12/19 19:13:28;;;;;;;22.13;20.00;;;;;;;6.34;100.00;101249.41;10455341;28;20036;-83
2023/12/19 19:18:28;;;;;;;18.13;16.50;;;;;;;6.25;100.00;101259.78;10456540;28;20061;-83
2023/12/19 19:23:29;;;;;;;22.77;17.63;;;;;;;6.21;100.00;101253.06;10443774;28;20037;-81
2023/12/19 19:28:30;;;;;;;20.45;16.67;;;;;;;6.08;100.00;101261.31;10437308;28;20090;-82
2023/12/19 19:33:32;;;;;;;17.65;16.00;;;;;;;6.12;100.00;101281.69;10437758;28;20059;-83
2023/12/19 19:38:33;;;;;;;17.00;15.00;;;;;;;6.07;100.00;101281.50;10430816;28;20049;-83
2023/12/19 19:43:37;;;;;;;17.20;15.50;;;;;;;5.93;100.00;101269.72;10436464;28;20530;-81
2023/12/19 19:48:37;;;;;;;17.98;14.32;;;;;;;5.92;100.00;101278.16;10420640;28;20037;-82
2023/12/19 19:53:38;;;;;;;16.45;14.98;;;;;;;5.91;100.00;101276.44;10436762;28;20060;-81
2023/12/19 19:58:38;;;;;;;16.23;14.70;;;;;;;5.45;100.00;101210.75;10454518;28;20061;-83
2023/12/19 20:03:43;;;;;;;18.98;15.48;;;;;;;5.82;100.00;101273.94;10401440;28;20051;-82
2023/12/19 20:08:44;;;;;;;24.65;13.13;;;;;;;5.74;100.00;101271.44;10437450;28;20048;-82
2023/12/19 20:13:44;;;;;;;17.08;15.75;;;;;;;5.73;100.00;101264.31;10456500;28;20484;-82
2023/12/19 20:18:45;;;;;;;18.38;16.70;;;;;;;5.63;100.00;101274.81;10445343;28;20041;-82
2023/12/19 20:23:45;;;;;;;19.30;17.15;;;;;;;5.53;100.00;101274.41;10435880;28;20405;-81
2023/12/19 20:28:46;;;;;;;15.65;14.23;;;;;;;5.50;100.00;101258.44;10419605;28;20500;-82
2023/12/19 20:33:47;;;;;;;16.98;15.32;;;;;;;5.42;100.00;101243.13;10435650;28;20650;-83
2023/12/19 20:38:47;;;;;;;20.92;16.88;;;;;;;5.31;100.00;101236.38;10419082;28;20041;-83
2023/12/19 20:43:48;;;;;;;18.38;16.40;;;;;;;5.30;100.00;101259.28;10419730;28;20044;-81
2023/12/19 20:48:48;;;;;;;18.20;16.67;;;;;;;5.34;100.00;101276.94;10419691;28;20139;-83
2023/12/19 20:53:49;;;;;;;21.75;17.65;;;;;;;5.30;100.00;101267.47;10426753;28;20048;-84
2023/12/19 20:58:51;;;;;;;18.65;16.88;;;;;;;5.26;100.00;101267.06;10442923;28;20092;-82
2023/12/19 21:03:51;;;;;;;17.80;16.10;;;;;;;5.30;100.00;101248.38;10461037;28;20029;-83
2023/12/19 21:08:52;;;;;;;20.77;16.65;;;;;;;4.92;100.00;101182.63;10442542;28;20071;-83
2023/12/19 21:13:52;;;;;;;25.05;18.98;;;;;;;5.30;100.00;101247.53;10423940;28;20045;-83
2023/12/19 21:18:53;;;;;;;19.90;18.08;;;;;;;5.23;100.00;101236.63;10443279;28;20048;-77
2023/12/19 21:23:53;;;;;;;22.98;18.40;;;;;;;5.08;100.00;101222.34;10433646;28;20045;-83
2023/12/19 21:28:56;;;;;;;21.73;19.80;;;;;;;5.09;100.00;101243.97;10459292;28;20040;-84
2023/12/19 21:33:57;;;;;;;21.38;19.15;;;;;;;4.97;100.00;101242.91;10442622;28;20437;-84
2023/12/19 21:38:59;;;;;;;20.52;18.10;;;;;;;4.73;100.00;101219.78;10424591;28;20032;-84
2023/12/19 21:43:59;;;;;;;21.08;18.83;;;;;;;4.80;100.00;101247.91;10442043;28;20067;-84
2023/12/19 21:49:00;;;;;;;21.17;18.90;;;;;;;4.73;100.00;101244.31;10425522;28;20067;-83
2023/12/19 21:54:10;;;;;;;22.33;20.52;;;;;;;4.50;100.00;101212.78;10424662;28;20057;-85
2023/12/19 21:59:10;;;;;;;27.73;19.48;;;;;;;4.61;100.00;101231.31;10425472;28;20044;-84
2023/12/19 22:04:10;;;;;;;22.52;20.45;;;;;;;4.61;100.00;101239.47;10458646;28;20055;-84
2023/12/19 22:09:11;;;;;;;20.80;19.05;;;;;;;4.62;100.00;101223.94;10423893;28;20099;-84
2023/12/19 22:14:11;;;;;;;22.52;20.30;;;;;;;4.52;100.00;101218.88;10424341;28;20124;-85
2023/12/19 22:19:13;;;;;;;22.17;19.60;;;;;;;4.55;100.00;101223.94;10440942;28;20037;-85
2023/12/19 22:24:13;;;;;;;21.10;18.52;;;;;;;4.44;100.00;101210.91;10439977;28;20101;-84
2023/12/19 22:29:14;;;;;;;19.42;17.27;;;;;;;4.43;100.00;101215.50;10439934;28;20076;-85
2023/12/19 22:34:14;;;;;;;20.83;18.98;;;;;;;4.38;100.00;101207.13;10444339;28;20043;-85